Time;durP1;ratioP1;P1;durP2;ratioP2;P2;SDS_P1;SDS_P2;PMS_P1;PMS_P2;Temp;Humidity;BMP_temperature;BMP_pressure;BME280_temperature;BME280_humidity;BME280_pressure;Samples;Min_cycle;Max_cycle;Signal;HPM_P1;HPM_P2
2021/12/24 00:01:03;;;;;;;;;;;;;;;;;;5016168;28;1351;-85
2021/12/24 00:03:28;;;;;;;;;;;;;;;;;;5015372;28;1890;-84
2021/12/24 00:05:53;;;;;;;;;;;;;;;;;;5000958;28;1360;-86
2021/12/24 00:08:18;;;;;;;;;;;;;;;;;;5015023;28;1221;-85
2021/12/24 00:10:47;;;;;;;;;;;;;;;;;;5015855;28;1198;-86
2021/12/24 00:13:14;;;;;;;;;;;;;;;;;;5014757;28;1449;-85
2021/12/24 00:18:50;;;;;;;;;;;;;;;;;;5000567;28;1186;-86
2021/12/24 00:37:16;;;;;;;;;;;;;;;;;;5000832;28;596;-85
2021/12/24 00:39:50;;;;;;;;;;;;;;;;;;5001012;28;1296;-86
2021/12/24 00:42:15;;;;;;;;;;;;;;;;;;5002372;28;1890;-85
2021/12/24 00:44:40;;;;;;;;;;;;;;;;;;5002302;28;1531;-86
2021/12/24 00:47:05;;;;;;;;;;;;;;;;;;5016321;28;1235;-84
2021/12/24 00:49:30;;;;;;;;;;;;;;;;;;5016759;28;1208;-85
2021/12/24 00:52:07;;;;;;;;;;;;;;;;;;5017816;28;1195;-84
2021/12/24 00:57:15;;;;;;;;;;;;;;;;;;5006540;28;722;-85
2021/12/24 00:59:40;;;;;;;;;;;;;;;;;;5003890;28;1221;-86
2021/12/24 01:02:05;;;;;;;;;;;;;;;;;;5019707;28;1867;-85
2021/12/24 01:04:31;;;;;;;;;;;;;;;;;;5018819;28;1551;-85
2021/12/24 01:06:56;;;;;;;;;;;;;;;;;;5019592;28;1362;-85
2021/12/24 01:09:21;;;;;;;;;;;;;;;;;;5003944;28;1278;-86
2021/12/24 01:11:46;;;;;;;;;;;;;;;;;;5019198;28;1373;-85
2021/12/24 01:14:11;;;;;;;;;;;;;;;;;;5019857;28;1401;-86
2021/12/24 01:16:48;;;;;;;;;;;;;;;;;;5019101;28;1307;-85
2021/12/24 01:19:19;;;;;;;;;;;;;;;;;;5018930;28;1359;-86
2021/12/24 01:22:08;;;;;;;;;;;;;;;;;;5018175;28;1894;-85
2021/12/24 01:25:21;;;;;;;;;;;;;;;;;;5000131;28;1613;-87
2021/12/24 01:38:08;;;;;;;;;;;;;;;;;;4998835;28;645;-87
2021/12/24 01:40:53;;;;;;;;;;;;;;;;;;5015011;28;1456;-87
2021/12/24 01:43:18;;;;;;;;;;;;;;;;;;5021060;28;1945;-86
2021/12/24 01:45:43;;;;;;;;;;;;;;;;;;5020274;28;1334;-86
2021/12/24 01:48:08;;;;;;;;;;;;;;;;;;5018337;28;1261;-85
2021/12/24 01:50:33;;;;;;;;;;;;;;;;;;5018197;28;1195;-86
2021/12/24 01:52:58;;;;;;;;;;;;;;;;;;5016956;28;1224;-85
2021/12/24 01:55:24;;;;;;;;;;;;;;;;;;5017603;28;1339;-85
2021/12/24 01:57:49;;;;;;;;;;;;;;;;;;5018339;28;1212;-86
2021/12/24 02:00:14;;;;;;;;;;;;;;;;;;5002096;28;1190;-87
2021/12/24 02:02:39;;;;;;;;;;;;;;;;;;5017280;28;1905;-85
2021/12/24 02:05:04;;;;;;;;;;;;;;;;;;5017145;28;1307;-87
2021/12/24 02:07:29;;;;;;;;;;;;;;;;;;5017079;28;1299;-86
2021/12/24 02:09:54;;;;;;;;;;;;;;;;;;5016529;28;1457;-86
2021/12/24 02:12:19;;;;;;;;;;;;;;;;;;5016303;28;1259;-86
2021/12/24 02:14:49;;;;;;;;;;;;;;;;;;5016084;28;1201;-86
2021/12/24 02:17:42;;;;;;;;;;;;;;;;;;5016429;28;1224;-86
2021/12/24 02:28:29;;;;;;;;;;;;;;;;;;4999395;28;1256;-85
2021/12/24 02:30:55;;;;;;;;;;;;;;;;;;5014170;28;1364;-85
2021/12/24 02:33:20;;;;;;;;;;;;;;;;;;5014520;28;1346;-87
2021/12/24 02:35:45;;;;;;;;;;;;;;;;;;5014674;28;1197;-85
2021/12/24 02:38:10;;;;;;;;;;;;;;;;;;5013646;28;1259;-89
2021/12/24 02:40:35;;;;;;;;;;;;;;;;;;5014416;28;1263;-86
2021/12/24 02:43:00;;;;;;;;;;;;;;;;;;5013811;28;1890;-87
2021/12/24 02:45:25;;;;;;;;;;;;;;;;;;4999334;28;1492;-85
2021/12/24 02:48:10;;;;;;;;;;;;;;;;;;5014454;28;1247;-85
2021/12/24 02:56:03;;;;;;;;;;;;;;;;;;4999190;28;1555;-85
2021/12/24 02:58:28;;;;;;;;;;;;;;;;;;4998824;28;1271;-86
2021/12/24 03:00:53;;;;;;;;;;;;;;;;;;4999043;28;980;-86
2021/12/24 03:03:18;;;;;;;;;;;;;;;;;;5013404;28;1894;-86
2021/12/24 03:05:43;;;;;;;;;;;;;;;;;;4998938;28;1480;-86
2021/12/24 03:08:08;;;;;;;;;;;;;;;;;;4999314;28;1209;-86
2021/12/24 03:10:35;;;;;;;;;;;;;;;;;;4999669;28;920;-84
2021/12/24 03:13:00;;;;;;;;;;;;;;;;;;5013351;28;1228;-86
2021/12/24 03:15:25;;;;;;;;;;;;;;;;;;5013407;28;1165;-85
2021/12/24 03:17:54;;;;;;;;;;;;;;;;;;5013915;28;1355;-87
2021/12/24 03:20:20;;;;;;;;;;;;;;;;;;4998515;28;1258;-85
2021/12/24 03:23:04;;;;;;;;;;;;;;;;;;4998435;28;1957;-85
2021/12/24 03:25:29;;;;;;;;;;;;;;;;;;4998865;28;830;-86
2021/12/24 03:27:54;;;;;;;;;;;;;;;;;;4998668;28;1055;-86
2021/12/24 03:30:19;;;;;;;;;;;;;;;;;;5012906;28;1290;-87
2021/12/24 03:32:44;;;;;;;;;;;;;;;;;;4998061;28;996;-87
2021/12/24 03:35:09;;;;;;;;;;;;;;;;;;5013650;28;1401;-85
2021/12/24 03:37:34;;;;;;;;;;;;;;;;;;5013209;28;1221;-85
2021/12/24 03:39:59;;;;;;;;;;;;;;;;;;5013885;28;1206;-85
2021/12/24 03:42:26;;;;;;;;;;;;;;;;;;5013865;28;1953;-85
2021/12/24 03:45:05;;;;;;;;;;;;;;;;;;5004271;28;1597;-86
2021/12/24 03:47:36;;;;;;;;;;;;;;;;;;5013964;28;1236;-85
2021/12/24 03:50:07;;;;;;;;;;;;;;;;;;5048678;23;1795;-86
2021/12/24 03:52:50;;;;;;;;;;;;;;;;;;5054290;28;930;-86
2021/12/24 03:55:15;;;;;;;;;;;;;;;;;;5054026;28;1395;-86
2021/12/24 03:57:40;;;;;;;;;;;;;;;;;;5053996;28;1050;-85
2021/12/24 04:00:05;;;;;;;;;;;;;;;;;;5053856;28;1213;-86
2021/12/24 04:02:30;;;;;;;;;;;;;;;;;;5052684;28;1910;-85
2021/12/24 04:04:55;;;;;;;;;;;;;;;;;;5053276;28;1078;-86
2021/12/24 04:07:20;;;;;;;;;;;;;;;;;;5050610;28;1331;-86
2021/12/24 04:09:56;;;;;;;;;;;;;;;;;;5036625;28;1187;-86
2021/12/24 04:12:21;;;;;;;;;;;;;;;;;;5046232;28;1769;-86
2021/12/24 04:14:46;;;;;;;;;;;;;;;;;;5052273;28;1909;-84
2021/12/24 04:17:12;;;;;;;;;;;;;;;;;;5052961;28;1315;-85
2021/12/24 04:24:51;;;;;;;;;;;;;;;;;;5052195;28;1326;-85
2021/12/24 04:25:06;;;;;;;;;;;;;;;;;;5053718;28;1327;-86
2021/12/24 04:27:31;;;;;;;;;;;;;;;;;;5052143;28;1491;-85
2021/12/24 04:30:09;;;;;;;;;;;;;;;;;;5052077;28;1243;-85
2021/12/24 04:32:49;;;;;;;;;;;;;;;;;;5053614;28;844;-86
2021/12/24 04:35:20;;;;;;;;;;;;;;;;;;5052270;28;1275;-86
2021/12/24 05:02:10;;;;;;;;;;;;;;;;;;5053049;28;1869;-86
2021/12/24 05:04:39;;;;;;;;;;;;;;;;;;5052974;28;1496;-84
2021/12/24 05:07:37;;;;;;;;;;;;;;;;;;5053147;28;773;-86
2021/12/24 05:09:49;;;;;;;;;;;;;;;;;;5052624;28;1207;-86
2021/12/24 05:12:14;;;;;;;;;;;;;;;;;;5052905;28;1012;-85
2021/12/24 05:14:39;;;;;;;;;;;;;;;;;;5040180;28;1457;-86
2021/12/24 05:17:30;;;;;;;;;;;;;;;;;;5037122;28;870;-85
2021/12/24 05:22:39;;;;;;;;;;;;;;;;;;5037144;28;1952;-86
2021/12/24 05:25:04;;;;;;;;;;;;;;;;;;5052764;28;1556;-88
2021/12/24 05:27:29;;;;;;;;;;;;;;;;;;5056874;28;939;-86
2021/12/24 05:29:54;;;;;;;;;;;;;;;;;;5055219;28;1195;-85
2021/12/24 05:32:19;;;;;;;;;;;;;;;;;;5051673;28;1517;-85
2021/12/24 05:34:44;;;;;;;;;;;;;;;;;;5036849;28;1019;-86
2021/12/24 05:37:09;;;;;;;;;;;;;;;;;;5036835;28;1008;-87
2021/12/24 05:39:34;;;;;;;;;;;;;;;;;;5035514;28;1466;-85
2021/12/24 05:41:59;;;;;;;;;;;;;;;;;;5036633;28;1878;-86
2021/12/24 05:44:25;;;;;;;;;;;;;;;;;;5036634;28;1089;-86
2021/12/24 05:46:50;;;;;;;;;;;;;;;;;;5035492;28;1363;-87
2021/12/24 05:49:15;;;;;;;;;;;;;;;;;;5036519;28;1031;-87
2021/12/24 05:51:40;;;;;;;;;;;;;;;;;;5035116;28;1279;-87
2021/12/24 05:54:05;;;;;;;;;;;;;;;;;;5036662;28;1086;-86
2021/12/24 05:56:30;;;;;;;;;;;;;;;;;;5036624;28;876;-85
2021/12/24 05:58:55;;;;;;;;;;;;;;;;;;5034867;28;1188;-86
2021/12/24 06:01:21;;;;;;;;;;;;;;;;;;5036307;28;1204;-85
2021/12/24 06:03:46;;;;;;;;;;;;;;;;;;5036369;28;1902;-86
2021/12/24 06:06:11;;;;;;;;;;;;;;;;;;5035003;28;1201;-87
2021/12/24 06:08:36;;;;;;;;;;;;;;;;;;5034576;28;1400;-85
2021/12/24 06:11:01;;;;;;;;;;;;;;;;;;5036059;28;1345;-85
2021/12/24 06:13:28;;;;;;;;;;;;;;;;;;5036028;28;828;-86
2021/12/24 06:15:54;;;;;;;;;;;;;;;;;;5036050;28;852;-86
2021/12/24 06:18:25;;;;;;;;;;;;;;;;;;5035967;28;876;-84
2021/12/24 06:20:50;;;;;;;;;;;;;;;;;;5034571;28;1248;-86
2021/12/24 06:23:15;;;;;;;;;;;;;;;;;;5035872;28;1934;-85
2021/12/24 06:25:40;;;;;;;;;;;;;;;;;;5036004;28;807;-86
2021/12/24 06:28:05;;;;;;;;;;;;;;;;;;5033959;28;1200;-86
2021/12/24 06:30:31;;;;;;;;;;;;;;;;;;5035764;28;1284;-85
2021/12/24 06:32:56;;;;;;;;;;;;;;;;;;5034738;28;1370;-85
2021/12/24 06:35:21;;;;;;;;;;;;;;;;;;5035777;28;1004;-85
2021/12/24 06:37:46;;;;;;;;;;;;;;;;;;5035704;28;1079;-85
2021/12/24 06:40:11;;;;;;;;;;;;;;;;;;5035287;28;1279;-86
2021/12/24 06:42:36;;;;;;;;;;;;;;;;;;5044861;28;1882;-84
2021/12/24 06:45:02;;;;;;;;;;;;;;;;;;5055539;28;825;-86
2021/12/24 06:47:27;;;;;;;;;;;;;;;;;;5055344;28;849;-85
2021/12/24 06:49:52;;;;;;;;;;;;;;;;;;5053854;28;1239;-86
2021/12/24 06:52:17;;;;;;;;;;;;;;;;;;5055393;28;805;-85
2021/12/24 06:54:42;;;;;;;;;;;;;;;;;;5043259;28;1366;-84
2021/12/24 06:57:12;;;;;;;;;;;;;;;;;;5035020;28;829;-86
2021/12/24 06:59:37;;;;;;;;;;;;;;;;;;5050555;28;1807;-87
2021/12/24 07:02:02;;;;;;;;;;;;;;;;;;5043357;28;1894;-85
2021/12/24 07:04:27;;;;;;;;;;;;;;;;;;5037837;28;1189;-85
2021/12/24 07:06:53;;;;;;;;;;;;;;;;;;5040265;28;1923;-86
2021/12/24 07:09:18;;;;;;;;;;;;;;;;;;5048690;28;1113;-83
2021/12/24 07:11:43;;;;;;;;;;;;;;;;;;5055305;28;1209;-84
2021/12/24 07:14:08;;;;;;;;;;;;;;;;;;5053594;28;1893;-85
2021/12/24 07:16:33;;;;;;;;;;;;;;;;;;5063094;28;1092;-83
2021/12/24 07:18:58;;;;;;;;;;;;;;;;;;5054805;28;921;-82
2021/12/24 07:21:23;;;;;;;;;;;;;;;;;;5055050;28;1276;-83
2021/12/24 07:23:48;;;;;;;;;;;;;;;;;;5053958;28;1893;-82
2021/12/24 07:26:13;;;;;;;;;;;;;;;;;;5054941;28;1122;-87
2021/12/24 07:28:38;;;;;;;;;;;;;;;;;;5053407;28;1215;-84
2021/12/24 07:31:03;;;;;;;;;;;;;;;;;;5053593;28;1440;-84
2021/12/24 07:33:28;;;;;;;;;;;;;;;;;;5054645;28;1047;-83
2021/12/24 07:35:54;;;;;;;;;;;;;;;;;;5053538;28;1291;-83
2021/12/24 07:38:19;;;;;;;;;;;;;;;;;;5053936;28;1125;-85
2021/12/24 07:40:44;;;;;;;;;;;;;;;;;;5054141;28;1181;-85
2021/12/24 07:43:09;;;;;;;;;;;;;;;;;;5053465;28;1893;-84
2021/12/24 07:45:34;;;;;;;;;;;;;;;;;;5037356;28;1919;-86
2021/12/24 07:48:13;;;;;;;;;;;;;;;;;;5034201;28;1398;-83
2021/12/24 07:53:03;;;;;;;;;;;;;;;;;;5034676;28;1530;-85
2021/12/24 07:55:28;;;;;;;;;;;;;;;;;;5034343;28;825;-87
2021/12/24 07:57:54;;;;;;;;;;;;;;;;;;5034216;28;1015;-87
2021/12/24 08:00:19;;;;;;;;;;;;;;;;;;5033916;28;1288;-87
2021/12/24 08:02:44;;;;;;;;;;;;;;;;;;5032749;28;1890;-85
2021/12/24 08:05:09;;;;;;;;;;;;;;;;;;5034179;28;865;-84
2021/12/24 08:07:35;;;;;;;;;;;;;;;;;;5034030;28;833;-85
2021/12/24 08:10:00;;;;;;;;;;;;;;;;;;5033706;28;1285;-84
2021/12/24 08:12:25;;;;;;;;;;;;;;;;;;5034200;28;1457;-87
2021/12/24 08:14:50;;;;;;;;;;;;;;;;;;5033903;28;999;-83
2021/12/24 08:17:16;;;;;;;;;;;;;;;;;;5046741;28;1876;-86
2021/12/24 08:19:41;;;;;;;;;;;;;;;;;;5047395;28;1378;-85
2021/12/24 08:22:06;;;;;;;;;;;;;;;;;;5032450;28;1943;-86
2021/12/24 08:24:31;;;;;;;;;;;;;;;;;;5032294;28;1373;-84
2021/12/24 08:26:56;;;;;;;;;;;;;;;;;;5032251;28;1547;-83
2021/12/24 08:29:22;;;;;;;;;;;;;;;;;;5033575;28;861;-86
2021/12/24 08:31:47;;;;;;;;;;;;;;;;;;5033660;28;1276;-86
2021/12/24 08:34:12;;;;;;;;;;;;;;;;;;5033640;28;1129;-85
2021/12/24 08:36:37;;;;;;;;;;;;;;;;;;5037886;28;1626;-85
2021/12/24 08:39:02;;;;;;;;;;;;;;;;;;5052869;28;1597;-84
2021/12/24 08:41:27;;;;;;;;;;;;;;;;;;5053630;28;1173;-86
2021/12/24 08:43:52;;;;;;;;;;;;;;;;;;5054018;28;1890;-85
2021/12/24 08:46:17;;;;;;;;;;;;;;;;;;5053534;28;1090;-86
2021/12/24 08:48:42;;;;;;;;;;;;;;;;;;5053099;28;979;-86
2021/12/24 08:51:07;;;;;;;;;;;;;;;;;;5051544;28;1425;-86
2021/12/24 08:53:32;;;;;;;;;;;;;;;;;;5053682;28;750;-86
2021/12/24 08:55:57;;;;;;;;;;;;;;;;;;5053280;28;1505;-86
2021/12/24 08:58:22;;;;;;;;;;;;;;;;;;5051747;28;1179;-85
2021/12/24 09:00:47;;;;;;;;;;;;;;;;;;5053100;28;1162;-86
2021/12/24 09:03:13;;;;;;;;;;;;;;;;;;5051791;28;1953;-86
2021/12/24 09:05:38;;;;;;;;;;;;;;;;;;5053094;28;884;-85
2021/12/24 09:08:03;;;;;;;;;;;;;;;;;;5051872;28;1194;-86
2021/12/24 09:10:28;;;;;;;;;;;;;;;;;;5052940;28;1188;-87
2021/12/24 09:12:53;;;;;;;;;;;;;;;;;;5051811;28;1277;-88
2021/12/24 09:15:18;;;;;;;;;;;;;;;;;;5053069;28;798;-86
2021/12/24 09:17:45;;;;;;;;;;;;;;;;;;5051755;28;1236;-86
2021/12/24 09:20:13;;;;;;;;;;;;;;;;;;5052740;28;1279;-86
2021/12/24 09:22:39;;;;;;;;;;;;;;;;;;5033275;28;1942;-87
2021/12/24 09:25:04;;;;;;;;;;;;;;;;;;5052975;28;814;-86
2021/12/24 09:27:29;;;;;;;;;;;;;;;;;;5051654;28;1339;-86
2021/12/24 09:29:55;;;;;;;;;;;;;;;;;;5036520;28;1908;-86
2021/12/24 09:32:20;;;;;;;;;;;;;;;;;;5033025;28;1419;-86
2021/12/24 09:34:45;;;;;;;;;;;;;;;;;;5051478;28;1437;-86
2021/12/24 09:37:10;;;;;;;;;;;;;;;;;;5052886;28;817;-85
2021/12/24 09:39:35;;;;;;;;;;;;;;;;;;5043738;28;1459;-85
2021/12/24 09:42:00;;;;;;;;;;;;;;;;;;5031498;28;1890;-85
2021/12/24 09:44:25;;;;;;;;;;;;;;;;;;5031471;28;1197;-86
2021/12/24 09:46:50;;;;;;;;;;;;;;;;;;5032747;28;908;-86
2021/12/24 09:49:15;;;;;;;;;;;;;;;;;;5032655;28;841;-86
2021/12/24 09:51:41;;;;;;;;;;;;;;;;;;5053097;23;3638;-85
2021/12/24 09:54:06;;;;;;;;;;;;;;;;;;5039530;28;1955;-86
2021/12/24 09:56:31;;;;;;;;;;;;;;;;;;5040770;28;1007;-86
2021/12/24 09:58:56;;;;;;;;;;;;;;;;;;5037046;28;1290;-86
2021/12/24 10:01:21;;;;;;;;;;;;;;;;;;5012583;28;1312;-86
2021/12/24 10:03:46;;;;;;;;;;;;;;;;;;5039377;28;1173;-86
2021/12/24 10:06:12;;;;;;;;;;;;;;;;;;5039048;28;1223;-86
2021/12/24 10:08:37;;;;;;;;;;;;;;;;;;5039656;28;1220;-86
2021/12/24 10:11:02;;;;;;;;;;;;;;;;;;5050521;28;1253;-86
2021/12/24 10:13:27;;;;;;;;;;;;;;;;;;5024005;28;1950;-84
2021/12/24 10:15:52;;;;;;;;;;;;;;;;;;5023378;28;1291;-86
2021/12/24 10:18:17;;;;;;;;;;;;;;;;;;5020955;28;1220;-86
2021/12/24 10:20:42;;;;;;;;;;;;;;;;;;5037095;28;1527;-86
2021/12/24 10:23:08;;;;;;;;;;;;;;;;;;5041990;28;1015;-86
2021/12/24 10:25:33;;;;;;;;;;;;;;;;;;5040521;28;1254;-85
2021/12/24 10:27:58;;;;;;;;;;;;;;;;;;5040839;28;1268;-85
2021/12/24 10:30:23;;;;;;;;;;;;;;;;;;5041852;28;1194;-84
2021/12/24 10:32:48;;;;;;;;;;;;;;;;;;5041762;28;1921;-86
2021/12/24 10:35:13;;;;;;;;;;;;;;;;;;5040299;28;1773;-85
2021/12/24 10:37:38;;;;;;;;;;;;;;;;;;5039556;28;1310;-85
2021/12/24 10:40:03;;;;;;;;;;;;;;;;;;5040078;28;1672;-86
2021/12/24 10:42:29;;;;;;;;;;;;;;;;;;5040032;28;1332;-86
2021/12/24 10:44:54;;;;;;;;;;;;;;;;;;5040016;28;1330;-85
2021/12/24 10:47:19;;;;;;;;;;;;;;;;;;5039722;28;1706;-86
2021/12/24 10:54:46;;;;;;;;;;;;;;;;;;5042959;28;861;-85
2021/12/24 10:57:11;;;;;;;;;;;;;;;;;;5039714;28;1206;-87
2021/12/24 10:59:36;;;;;;;;;;;;;;;;;;5040467;28;1662;-86
2021/12/24 11:02:01;;;;;;;;;;;;;;;;;;5040790;28;1290;-86
2021/12/24 11:04:26;;;;;;;;;;;;;;;;;;5041302;28;1316;-85
2021/12/24 11:06:52;;;;;;;;;;;;;;;;;;5040546;28;1177;-85
2021/12/24 11:09:17;;;;;;;;;;;;;;;;;;5041505;28;1228;-86
2021/12/24 11:11:45;;;;;;;;;;;;;;;;;;5040542;28;1341;-86
2021/12/24 11:14:10;;;;;;;;;;;;;;;;;;5039990;28;1894;-86
2021/12/24 11:16:35;;;;;;;;;;;;;;;;;;5041127;28;1275;-86
2021/12/24 11:19:01;;;;;;;;;;;;;;;;;;5041607;28;983;-85
2021/12/24 11:21:26;;;;;;;;;;;;;;;;;;5041064;28;1252;-87
2021/12/24 11:23:51;;;;;;;;;;;;;;;;;;5040249;28;1371;-86
2021/12/24 11:26:16;;;;;;;;;;;;;;;;;;5039801;28;1162;-87
2021/12/24 11:28:41;;;;;;;;;;;;;;;;;;5039830;28;1221;-87
2021/12/24 11:31:06;;;;;;;;;;;;;;;;;;5040131;28;1276;-86
2021/12/24 11:33:31;;;;;;;;;;;;;;;;;;5039859;28;1943;-86
2021/12/24 11:35:56;;;;;;;;;;;;;;;;;;5040442;28;1311;-86
2021/12/24 11:38:22;;;;;;;;;;;;;;;;;;5040066;28;1303;-86
2021/12/24 11:40:47;;;;;;;;;;;;;;;;;;5040752;28;1329;-86
2021/12/24 11:43:12;;;;;;;;;;;;;;;;;;5040561;28;1512;-87
2021/12/24 11:45:37;;;;;;;;;;;;;;;;;;5039405;28;1295;-86
2021/12/24 11:48:02;;;;;;;;;;;;;;;;;;5041096;28;1073;-86
2021/12/24 11:50:27;;;;;;;;;;;;;;;;;;5041473;28;1198;-85
2021/12/24 11:52:52;;;;;;;;;;;;;;;;;;5042069;28;1926;-86
2021/12/24 11:55:17;;;;;;;;;;;;;;;;;;5041400;28;856;-85
2021/12/24 11:57:47;;;;;;;;;;;;;;;;;;5042185;28;1066;-86
2021/12/24 12:00:12;;;;;;;;;;;;;;;;;;5041788;28;1355;-86
2021/12/24 12:02:38;;;;;;;;;;;;;;;;;;5040062;28;1285;-85
2021/12/24 12:05:03;;;;;;;;;;;;;;;;;;5044729;28;825;-86
2021/12/24 12:07:28;;;;;;;;;;;;;;;;;;5041698;28;1318;-85
2021/12/24 12:09:53;;;;;;;;;;;;;;;;;;5041126;28;1744;-86
2021/12/24 12:12:18;;;;;;;;;;;;;;;;;;5039074;28;1890;-85
2021/12/24 12:14:43;;;;;;;;;;;;;;;;;;5038707;28;1279;-87
2021/12/24 12:17:08;;;;;;;;;;;;;;;;;;5037680;28;1629;-84
2021/12/24 12:22:16;;;;;;;;;;;;;;;;;;5038809;28;1312;-87
2021/12/24 12:27:06;;;;;;;;;;;;;;;;;;5038584;28;1269;-85
2021/12/24 12:29:32;;;;;;;;;;;;;;;;;;5037390;28;1316;-87
2021/12/24 12:31:57;;;;;;;;;;;;;;;;;;5040234;28;1898;-85
2021/12/24 12:34:24;;;;;;;;;;;;;;;;;;5039846;28;964;-86
2021/12/24 12:36:49;;;;;;;;;;;;;;;;;;5040747;28;947;-85
2021/12/24 12:39:14;;;;;;;;;;;;;;;;;;5038057;28;1584;-86
2021/12/24 12:41:45;;;;;;;;;;;;;;;;;;5038178;28;1287;-86
2021/12/24 12:44:11;;;;;;;;;;;;;;;;;;5024567;28;1335;-85
2021/12/24 12:46:36;;;;;;;;;;;;;;;;;;5050119;28;1678;-87
2021/12/24 12:49:02;;;;;;;;;;;;;;;;;;5036809;28;1251;-85
2021/12/24 12:51:27;;;;;;;;;;;;;;;;;;5036777;28;1363;-85
2021/12/24 12:53:53;;;;;;;;;;;;;;;;;;5037318;28;1898;-87
2021/12/24 12:56:18;;;;;;;;;;;;;;;;;;5036104;28;1262;-85
2021/12/24 12:58:43;;;;;;;;;;;;;;;;;;5038088;28;1251;-86
2021/12/24 13:01:10;;;;;;;;;;;;;;;;;;5039370;28;1347;-86
2021/12/24 13:03:35;;;;;;;;;;;;;;;;;;5038252;28;1286;-87
2021/12/24 13:06:01;;;;;;;;;;;;;;;;;;5036751;28;1691;-86
2021/12/24 13:08:26;;;;;;;;;;;;;;;;;;5037480;28;1577;-87
2021/12/24 13:10:51;;;;;;;;;;;;;;;;;;5038354;28;1232;-86
2021/12/24 13:13:16;;;;;;;;;;;;;;;;;;5038236;28;1947;-85
2021/12/24 13:15:41;;;;;;;;;;;;;;;;;;5037801;28;1249;-86
2021/12/24 13:18:06;;;;;;;;;;;;;;;;;;5038022;28;1776;-85
2021/12/24 13:20:45;;;;;;;;;;;;;;;;;;5034493;28;1262;-85
2021/12/24 13:23:10;;;;;;;;;;;;;;;;;;5037429;28;1371;-85
2021/12/24 13:25:35;;;;;;;;;;;;;;;;;;5039090;28;1639;-85
2021/12/24 13:28:00;;;;;;;;;;;;;;;;;;5039790;28;1728;-85
2021/12/24 13:30:25;;;;;;;;;;;;;;;;;;5038057;28;1605;-85
2021/12/24 13:32:50;;;;;;;;;;;;;;;;;;5039461;28;1898;-85
2021/12/24 13:35:15;;;;;;;;;;;;;;;;;;5039731;28;1066;-86
2021/12/24 13:37:45;;;;;;;;;;;;;;;;;;5038371;28;1435;-85
2021/12/24 13:40:10;;;;;;;;;;;;;;;;;;5039809;28;1399;-85
2021/12/24 13:42:35;;;;;;;;;;;;;;;;;;5040725;28;1181;-86
2021/12/24 13:45:01;;;;;;;;;;;;;;;;;;5040862;28;1273;-85
2021/12/24 13:47:51;;;;;;;;;;;;;;;;;;5042818;28;1713;-84
2021/12/24 13:55:29;;;;;;;;;;;;;;;;;;5040391;28;701;-87
2021/12/24 13:57:54;;;;;;;;;;;;;;;;;;5041448;28;1168;-85
2021/12/24 14:00:20;;;;;;;;;;;;;;;;;;5043350;28;1749;-86
2021/12/24 14:02:45;;;;;;;;;;;;;;;;;;5044387;28;1350;-85
2021/12/24 14:05:11;;;;;;;;;;;;;;;;;;5040868;28;1181;-85
2021/12/24 14:07:36;;;;;;;;;;;;;;;;;;5042382;28;1697;-86
2021/12/24 14:10:01;;;;;;;;;;;;;;;;;;5042661;28;1198;-86
2021/12/24 14:12:28;;;;;;;;;;;;;;;;;;5042270;28;1889;-86
2021/12/24 14:15:07;;;;;;;;;;;;;;;;;;5042088;28;1273;-86
2021/12/24 14:17:48;;;;;;;;;;;;;;;;;;5040882;28;1331;-86
2021/12/24 14:20:23;;;;;;;;;;;;;;;;;;5041756;28;1375;-85
2021/12/24 14:22:48;;;;;;;;;;;;;;;;;;5042953;28;837;-86
2021/12/24 14:25:13;;;;;;;;;;;;;;;;;;5041219;28;1962;-86
2021/12/24 14:27:38;;;;;;;;;;;;;;;;;;5041573;28;1816;-86
2021/12/24 14:30:03;;;;;;;;;;;;;;;;;;5043566;28;1197;-86
2021/12/24 14:32:28;;;;;;;;;;;;;;;;;;5041309;28;1886;-86
2021/12/24 14:34:53;;;;;;;;;;;;;;;;;;5041598;28;1246;-85
2021/12/24 14:37:18;;;;;;;;;;;;;;;;;;5041758;28;1171;-86
2021/12/24 14:39:44;;;;;;;;;;;;;;;;;;5041101;28;1224;-85
2021/12/24 14:42:09;;;;;;;;;;;;;;;;;;5042210;28;1943;-86
2021/12/24 14:44:34;;;;;;;;;;;;;;;;;;5044289;28;1043;-86
2021/12/24 14:46:59;;;;;;;;;;;;;;;;;;5041561;28;1183;-86
2021/12/24 14:49:24;;;;;;;;;;;;;;;;;;5043285;28;1009;-86
2021/12/24 14:51:49;;;;;;;;;;;;;;;;;;5041446;28;1193;-86
2021/12/24 14:54:15;;;;;;;;;;;;;;;;;;5043373;28;1886;-86
2021/12/24 14:56:40;;;;;;;;;;;;;;;;;;5042764;28;1273;-86
2021/12/24 14:59:05;;;;;;;;;;;;;;;;;;5043659;28;822;-86
2021/12/24 15:01:32;;;;;;;;;;;;;;;;;;5042506;28;1320;-84
2021/12/24 15:03:57;;;;;;;;;;;;;;;;;;5038949;28;1238;-86
2021/12/24 15:06:27;;;;;;;;;;;;;;;;;;5040397;28;1203;-86
2021/12/24 15:08:52;;;;;;;;;;;;;;;;;;5039112;28;1251;-86
2021/12/24 15:11:17;;;;;;;;;;;;;;;;;;5037711;28;1467;-84
2021/12/24 15:13:42;;;;;;;;;;;;;;;;;;5037583;28;1906;-85
2021/12/24 15:16:07;;;;;;;;;;;;;;;;;;5038609;28;838;-85
2021/12/24 15:18:32;;;;;;;;;;;;;;;;;;5038291;28;842;-85
2021/12/24 15:20:57;;;;;;;;;;;;;;;;;;5036620;28;1233;-85
2021/12/24 15:23:22;;;;;;;;;;;;;;;;;;5037879;28;1509;-86
2021/12/24 15:25:47;;;;;;;;;;;;;;;;;;5038161;28;1418;-85
2021/12/24 15:28:15;;;;;;;;;;;;;;;;;;5036891;28;1376;-86
2021/12/24 15:30:40;;;;;;;;;;;;;;;;;;5036613;28;1317;-84
2021/12/24 15:33:05;;;;;;;;;;;;;;;;;;5037147;28;1886;-86
2021/12/24 15:35:32;;;;;;;;;;;;;;;;;;5036559;28;1427;-85
2021/12/24 15:37:57;;;;;;;;;;;;;;;;;;5036367;28;1342;-85
2021/12/24 15:40:22;;;;;;;;;;;;;;;;;;5036520;28;1294;-86
2021/12/24 15:42:49;;;;;;;;;;;;;;;;;;5037609;28;1074;-86
2021/12/24 15:45:14;;;;;;;;;;;;;;;;;;5036892;28;1397;-86
2021/12/24 15:47:39;;;;;;;;;;;;;;;;;;5038991;28;797;-85
2021/12/24 15:50:04;;;;;;;;;;;;;;;;;;5036680;28;1553;-87
2021/12/24 15:52:29;;;;;;;;;;;;;;;;;;5080092;22;1882;-89
2021/12/24 15:54:54;;;;;;;;;;;;;;;;;;5075216;28;955;-88
2021/12/24 15:57:20;;;;;;;;;;;;;;;;;;5056926;28;1119;-88
2021/12/24 15:59:45;;;;;;;;;;;;;;;;;;5056128;28;1285;-89
2021/12/24 16:02:10;;;;;;;;;;;;;;;;;;5057057;28;1467;-89
2021/12/24 16:04:35;;;;;;;;;;;;;;;;;;5056701;28;1207;-89
2021/12/24 16:07:00;;;;;;;;;;;;;;;;;;5056716;28;1361;-89
2021/12/24 16:09:25;;;;;;;;;;;;;;;;;;5056581;28;1218;-88
2021/12/24 16:11:51;;;;;;;;;;;;;;;;;;5056824;28;1362;-88
2021/12/24 16:14:16;;;;;;;;;;;;;;;;;;5056737;28;1914;-89
2021/12/24 16:16:44;;;;;;;;;;;;;;;;;;5074401;28;813;-88
2021/12/24 16:19:09;;;;;;;;;;;;;;;;;;5056562;28;1239;-88
2021/12/24 16:21:34;;;;;;;;;;;;;;;;;;5056260;28;1236;-88
2021/12/24 16:23:59;;;;;;;;;;;;;;;;;;5056444;28;1171;-88
2021/12/24 16:26:24;;;;;;;;;;;;;;;;;;5056391;28;1274;-89
2021/12/24 16:28:49;;;;;;;;;;;;;;;;;;5056319;28;1269;-88
2021/12/24 16:31:16;;;;;;;;;;;;;;;;;;5056547;28;1377;-88
2021/12/24 16:33:41;;;;;;;;;;;;;;;;;;5056188;28;1955;-88
2021/12/24 16:36:06;;;;;;;;;;;;;;;;;;5056218;28;1291;-88
2021/12/24 16:38:31;;;;;;;;;;;;;;;;;;5074013;28;943;-89
2021/12/24 16:40:56;;;;;;;;;;;;;;;;;;5056228;28;1176;-88
2021/12/24 16:43:21;;;;;;;;;;;;;;;;;;5074092;28;1157;-88
2021/12/24 16:45:49;;;;;;;;;;;;;;;;;;5074027;28;1034;-89
2021/12/24 16:48:14;;;;;;;;;;;;;;;;;;5056058;28;1351;-89
2021/12/24 16:50:39;;;;;;;;;;;;;;;;;;5056412;28;1335;-89
2021/12/24 16:53:04;;;;;;;;;;;;;;;;;;5055847;28;1914;-88
2021/12/24 16:55:30;;;;;;;;;;;;;;;;;;5055950;28;1171;-89
2021/12/24 16:57:55;;;;;;;;;;;;;;;;;;5055946;28;1375;-89
2021/12/24 17:00:20;;;;;;;;;;;;;;;;;;5055814;28;1293;-89
2021/12/24 17:02:45;;;;;;;;;;;;;;;;;;5055914;28;1303;-89
2021/12/24 17:05:10;;;;;;;;;;;;;;;;;;5056087;28;1191;-87
2021/12/24 17:07:35;;;;;;;;;;;;;;;;;;5055892;28;1232;-89
2021/12/24 17:10:00;;;;;;;;;;;;;;;;;;5074536;28;999;-90
2021/12/24 17:12:26;;;;;;;;;;;;;;;;;;5059493;28;1961;-88
2021/12/24 17:14:58;;;;;;;;;;;;;;;;;;5060351;28;1429;-88
2021/12/24 17:17:27;;;;;;;;;;;;;;;;;;5060411;28;1239;-88
2021/12/24 17:19:52;;;;;;;;;;;;;;;;;;5064272;28;1479;-88
2021/12/24 17:22:17;;;;;;;;;;;;;;;;;;5076152;28;1177;-89
2021/12/24 17:24:42;;;;;;;;;;;;;;;;;;5057539;28;1270;-88
2021/12/24 17:27:07;;;;;;;;;;;;;;;;;;5049990;28;1318;-89
2021/12/24 17:29:32;;;;;;;;;;;;;;;;;;5057480;28;825;-89
2021/12/24 17:31:57;;;;;;;;;;;;;;;;;;5039673;28;1282;-89
2021/12/24 17:34:23;;;;;;;;;;;;;;;;;;5057485;28;1951;-89
2021/12/24 17:39:26;;;;;;;;;;;;;;;;;;5057805;28;845;-90
2021/12/24 17:41:51;;;;;;;;;;;;;;;;;;5039509;28;1182;-90
2021/12/24 17:44:16;;;;;;;;;;;;;;;;;;5039639;28;1370;-89
2021/12/24 17:46:41;;;;;;;;;;;;;;;;;;5039360;28;1228;-90
2021/12/24 17:49:06;;;;;;;;;;;;;;;;;;5039341;28;1264;-90
2021/12/24 17:51:31;;;;;;;;;;;;;;;;;;5039819;28;1331;-89
2021/12/24 17:53:56;;;;;;;;;;;;;;;;;;5039347;28;1898;-90
2021/12/24 17:56:26;;;;;;;;;;;;;;;;;;5039286;28;1224;-89
2021/12/24 17:58:51;;;;;;;;;;;;;;;;;;5056280;28;844;-87
2021/12/24 18:01:16;;;;;;;;;;;;;;;;;;5046022;28;1435;-87
2021/12/24 18:03:41;;;;;;;;;;;;;;;;;;5058420;28;1205;-85
2021/12/24 18:06:06;;;;;;;;;;;;;;;;;;5076463;28;955;-85
2021/12/24 18:08:31;;;;;;;;;;;;;;;;;;5058255;28;1164;-87
2021/12/24 18:10:56;;;;;;;;;;;;;;;;;;5058040;28;1285;-85
2021/12/24 18:13:29;;;;;;;;;;;;;;;;;;5076203;28;1882;-86
2021/12/24 18:15:54;;;;;;;;;;;;;;;;;;5050475;28;1495;-86
2021/12/24 18:18:19;;;;;;;;;;;;;;;;;;5038091;28;1192;-87
2021/12/24 18:20:46;;;;;;;;;;;;;;;;;;5038322;28;1329;-86
2021/12/24 18:23:11;;;;;;;;;;;;;;;;;;5037265;28;1338;-86
2021/12/24 18:25:36;;;;;;;;;;;;;;;;;;5038193;28;1203;-87
2021/12/24 18:28:01;;;;;;;;;;;;;;;;;;5038048;28;1726;-86
2021/12/24 18:30:26;;;;;;;;;;;;;;;;;;5038091;28;1188;-86
2021/12/24 18:32:51;;;;;;;;;;;;;;;;;;5057835;28;1882;-85
2021/12/24 18:35:16;;;;;;;;;;;;;;;;;;5049025;28;1690;-86